Time;durP1;ratioP1;P1;durP2;ratioP2;P2;SDS_P1;SDS_P2;PMS_P1;PMS_P2;Temp;Humidity;BMP_temperature;BMP_pressure;BME280_temperature;BME280_humidity;BME280_pressure;Samples;Min_cycle;Max_cycle;Signal;HPM_P1;HPM_P2
2022/10/10 00:00:42;;;;;;;;;;;10.80;99.90;;;;;;5062538;28;19909;-72
2022/10/10 00:03:07;;;;;;;;;;;10.80;99.90;;;;;;5061424;28;19915;-72
2022/10/10 00:05:33;;;;;;;;;;;10.80;99.90;;;;;;5061253;28;20065;-72
2022/10/10 00:07:59;;;;;;;;;;;10.80;99.90;;;;;;5060378;28;20230;-73
2022/10/10 00:10:25;;;;;;;;;;;10.70;99.90;;;;;;5061358;28;19917;-73
2022/10/10 00:12:51;;;;;;;;;;;10.70;99.90;;;;;;5044497;28;19921;-73
2022/10/10 00:15:16;;;;;;;;;;;10.60;99.90;;;;;;5061322;28;19909;-72
2022/10/10 00:17:42;;;;;;;;;;;10.60;99.90;;;;;;5061899;28;19959;-73
2022/10/10 00:20:12;;;;;;;;;;;10.50;99.90;;;;;;5062278;28;19909;-72
2022/10/10 00:22:38;;;;;;;;;;;10.50;99.90;;;;;;5043852;28;19909;-73
2022/10/10 00:25:05;;;;;;;;;;;10.50;99.90;;;;;;5062346;28;19975;-73
2022/10/10 00:27:30;;;;;;;;;;;10.40;99.90;;;;;;5043994;28;20128;-74
2022/10/10 00:29:57;;;;;;;;;;;10.40;99.90;;;;;;5062326;28;19909;-74
2022/10/10 00:32:22;;;;;;;;;;;10.40;99.90;;;;;;5044516;28;19915;-74
2022/10/10 00:34:48;;;;;;;;;;;10.50;99.90;;;;;;5061714;28;19909;-74
2022/10/10 00:37:13;;;;;;;;;;;10.50;99.90;;;;;;5060295;28;19918;-74
2022/10/10 00:39:39;;;;;;;;;;;10.50;99.90;;;;;;5062284;28;20103;-73
2022/10/10 00:42:05;;;;;;;;;;;10.50;99.90;;;;;;5061284;28;19917;-73
2022/10/10 00:44:31;;;;;;;;;;;10.40;99.90;;;;;;5062176;28;20115;-73
2022/10/10 00:46:56;;;;;;;;;;;10.40;99.90;;;;;;5061427;28;20115;-72
2022/10/10 00:49:24;;;;;;;;;;;10.40;99.90;;;;;;5062476;28;19909;-74
2022/10/10 00:51:51;;;;;;;;;;;10.40;99.90;;;;;;5061139;28;19916;-73
2022/10/10 00:54:17;;;;;;;;;;;10.40;99.90;;;;;;5065321;28;19912;-73
2022/10/10 00:56:56;;;;;;;;;;;10.40;99.90;;;;;;5056774;28;19919;-73
2022/10/10 00:59:21;;;;;;;;;;;10.40;99.90;;;;;;5076557;28;19920;-73
2022/10/10 01:01:47;;;;;;;;;;;10.40;99.90;;;;;;5060093;28;19908;-74
2022/10/10 01:04:37;;;;;;;;;;;10.40;99.90;;;;;;5077357;28;19909;-74
2022/10/10 01:07:07;;;;;;;;;;;10.40;99.90;;;;;;5076478;28;19975;-73
2022/10/10 01:09:34;;;;;;;;;;;10.30;99.90;;;;;;5059125;28;19909;-73
2022/10/10 01:12:03;;;;;;;;;;;10.30;99.90;;;;;;5051088;28;19924;-74
2022/10/10 01:14:40;;;;;;;;;;;10.30;99.90;;;;;;5066545;28;19916;-73
2022/10/10 01:17:23;;;;;;;;;;;10.30;99.90;;;;;;5065466;28;20275;-74
2022/10/10 01:20:00;;;;;;;;;;;10.30;99.90;;;;;;5065745;28;19951;-73
2022/10/10 01:22:25;;;;;;;;;;;10.30;99.90;;;;;;5065306;28;19924;-74
2022/10/10 01:25:13;;;;;;;;;;;10.30;99.90;;;;;;5066140;28;19909;-74
2022/10/10 01:27:59;;;;;;;;;;;10.30;99.90;;;;;;5064138;28;19944;-74
2022/10/10 01:30:25;;;;;;;;;;;10.30;99.90;;;;;;5064649;28;19959;-74
2022/10/10 01:32:52;;;;;;;;;;;10.30;99.90;;;;;;5064341;28;19912;-74
2022/10/10 01:35:33;;;;;;;;;;;10.30;99.90;;;;;;5064350;28;20207;-73
2022/10/10 01:38:07;;;;;;;;;;;10.30;99.90;;;;;;5043620;28;20112;-74
2022/10/10 01:40:46;;;;;;;;;;;10.30;99.90;;;;;;5028227;28;20124;-74
2022/10/10 01:43:12;;;;;;;;;;;10.20;99.90;;;;;;5028482;28;19909;-73
2022/10/10 01:45:43;;;;;;;;;;;10.20;99.90;;;;;;5045129;28;19996;-73
2022/10/10 01:48:08;;;;;;;;;;;10.20;99.90;;;;;;5044463;28;19917;-73
2022/10/10 01:51:03;;;;;;;;;;;10.20;99.90;;;;;;5063606;28;20152;-74
2022/10/10 01:53:42;;;;;;;;;;;10.20;99.90;;;;;;5061938;28;19912;-74
2022/10/10 01:56:29;;;;;;;;;;;10.20;99.90;;;;;;5063419;28;20310;-74
2022/10/10 01:59:06;;;;;;;;;;;10.20;99.90;;;;;;5044211;28;19940;-74
2022/10/10 02:01:45;;;;;;;;;;;10.20;99.90;;;;;;5027790;28;19909;-73
2022/10/10 02:04:30;;;;;;;;;;;10.20;99.90;;;;;;5043206;28;19909;-73
2022/10/10 02:07:02;;;;;;;;;;;10.20;99.90;;;;;;5044457;28;19909;-74
2022/10/10 02:09:32;;;;;;;;;;;10.10;99.90;;;;;;5063711;28;19917;-73
2022/10/10 02:11:58;;;;;;;;;;;10.20;99.90;;;;;;5062755;28;20212;-74
2022/10/10 02:14:27;;;;;;;;;;;10.10;99.90;;;;;;5063066;28;19915;-73
2022/10/10 02:16:53;;;;;;;;;;;10.10;99.90;;;;;;5062967;28;20083;-73
2022/10/10 02:19:20;;;;;;;;;;;10.10;99.90;;;;;;5063003;28;19935;-73
2022/10/10 02:21:46;;;;;;;;;;;10.00;99.90;;;;;;5062257;28;19931;-73
2022/10/10 02:24:12;;;;;;;;;;;10.00;99.90;;;;;;5063260;28;20170;-74
2022/10/10 02:26:38;;;;;;;;;;;9.90;99.90;;;;;;5062449;28;19923;-74
2022/10/10 02:29:14;;;;;;;;;;;9.90;99.90;;;;;;5061958;28;19927;-73
2022/10/10 02:31:50;;;;;;;;;;;9.80;99.90;;;;;;5043278;28;19909;-73
2022/10/10 02:34:17;;;;;;;;;;;9.80;99.90;;;;;;5057203;28;19913;-74
2022/10/10 02:36:49;;;;;;;;;;;9.70;99.90;;;;;;5025699;28;19960;-72
2022/10/10 02:39:14;;;;;;;;;;;9.60;99.90;;;;;;5055990;28;19980;-73
2022/10/10 02:41:40;;;;;;;;;;;9.60;99.90;;;;;;5058960;28;19913;-73
2022/10/10 02:44:06;;;;;;;;;;;9.50;99.90;;;;;;5042294;28;19913;-73
2022/10/10 02:46:32;;;;;;;;;;;9.50;99.90;;;;;;5058053;28;19943;-73
2022/10/10 02:48:57;;;;;;;;;;;9.50;99.90;;;;;;5058670;28;19921;-73
2022/10/10 02:51:23;;;;;;;;;;;9.50;99.90;;;;;;5058951;28;19909;-74
2022/10/10 02:53:49;;;;;;;;;;;9.50;99.90;;;;;;5058954;28;19910;-74
2022/10/10 02:56:14;;;;;;;;;;;9.40;99.90;;;;;;5043099;28;19913;-74
2022/10/10 02:58:40;;;;;;;;;;;9.40;99.90;;;;;;5043474;28;19913;-73
2022/10/10 03:01:06;;;;;;;;;;;9.30;99.90;;;;;;5043522;28;19916;-74
2022/10/10 03:03:31;;;;;;;;;;;9.20;99.90;;;;;;5043493;28;19941;-73
2022/10/10 03:05:57;;;;;;;;;;;9.20;99.90;;;;;;5043567;28;19917;-74
2022/10/10 03:08:23;;;;;;;;;;;9.20;99.90;;;;;;5043399;28;20219;-74
2022/10/10 03:10:56;;;;;;;;;;;9.30;99.90;;;;;;5043427;28;20208;-74
2022/10/10 03:13:21;;;;;;;;;;;9.30;99.90;;;;;;5043346;28;19979;-74
2022/10/10 03:15:47;;;;;;;;;;;9.20;99.90;;;;;;5058031;28;19979;-74
2022/10/10 03:18:13;;;;;;;;;;;9.20;99.90;;;;;;5059694;28;19925;-74
2022/10/10 03:20:38;;;;;;;;;;;9.20;99.90;;;;;;5061931;28;19909;-74
2022/10/10 03:23:04;;;;;;;;;;;9.20;99.90;;;;;;5062980;28;19915;-74
2022/10/10 03:25:30;;;;;;;;;;;9.20;99.90;;;;;;5062028;28;19955;-73
2022/10/10 03:27:55;;;;;;;;;;;9.20;99.90;;;;;;5061374;28;19940;-74
2022/10/10 03:30:21;;;;;;;;;;;9.20;99.90;;;;;;5062820;28;19908;-74
2022/10/10 03:32:46;;;;;;;;;;;9.10;99.90;;;;;;5062957;28;19909;-73
2022/10/10 03:35:12;;;;;;;;;;;9.10;99.90;;;;;;5062784;28;20373;-74
2022/10/10 03:37:38;;;;;;;;;;;9.10;99.90;;;;;;5061191;28;20123;-74
2022/10/10 03:40:04;;;;;;;;;;;9.10;99.90;;;;;;5062662;28;19909;-73
2022/10/10 03:42:29;;;;;;;;;;;9.20;99.90;;;;;;5062541;28;20019;-73
2022/10/10 03:44:55;;;;;;;;;;;9.10;99.90;;;;;;5062684;28;19927;-73
2022/10/10 03:47:22;;;;;;;;;;;9.10;99.90;;;;;;5062290;28;19916;-74
2022/10/10 03:49:48;;;;;;;;;;;9.10;99.90;;;;;;5061816;28;19917;-74
2022/10/10 03:52:13;;;;;;;;;;;9.10;99.90;;;;;;5062523;28;19946;-73
2022/10/10 03:54:39;;;;;;;;;;;9.10;99.90;;;;;;5061567;28;20257;-74
2022/10/10 03:57:05;;;;;;;;;;;9.10;99.90;;;;;;5061647;28;19909;-74
2022/10/10 03:59:30;;;;;;;;;;;9.00;99.90;;;;;;5061339;28;19917;-73
2022/10/10 04:01:57;;;;;;;;;;;9.00;99.90;;;;;;5062870;28;19916;-73
2022/10/10 04:04:23;;;;;;;;;;;9.00;99.90;;;;;;5062670;28;19923;-73
2022/10/10 04:06:49;;;;;;;;;;;8.90;99.90;;;;;;5061950;28;19916;-73
2022/10/10 04:09:14;;;;;;;;;;;8.90;99.90;;;;;;5062020;28;20095;-72
2022/10/10 04:11:40;;;;;;;;;;;8.90;99.90;;;;;;5061143;28;19967;-73
2022/10/10 04:14:05;;;;;;;;;;;9.00;99.90;;;;;;5061280;28;19954;-72
2022/10/10 04:16:31;;;;;;;;;;;9.00;99.90;;;;;;5061794;28;19916;-74
2022/10/10 04:18:57;;;;;;;;;;;9.00;99.90;;;;;;5061501;28;19913;-73
2022/10/10 04:21:22;;;;;;;;;;;9.10;99.90;;;;;;5062194;28;19924;-74
2022/10/10 04:23:48;;;;;;;;;;;9.10;99.90;;;;;;5060839;28;19920;-72
2022/10/10 04:26:14;;;;;;;;;;;9.10;99.90;;;;;;5060665;28;19940;-72
2022/10/10 04:28:39;;;;;;;;;;;9.00;99.90;;;;;;5063763;28;19913;-72
2022/10/10 04:31:05;;;;;;;;;;;9.10;99.90;;;;;;5064986;28;19913;-72
2022/10/10 04:33:31;;;;;;;;;;;9.10;99.90;;;;;;5062348;28;19913;-72
2022/10/10 04:35:56;;;;;;;;;;;9.10;99.90;;;;;;5065174;28;19944;-71
2022/10/10 04:38:22;;;;;;;;;;;9.00;99.90;;;;;;5064736;28;20004;-72
2022/10/10 04:40:49;;;;;;;;;;;9.10;99.90;;;;;;5063322;28;19916;-72
2022/10/10 04:43:15;;;;;;;;;;;9.10;99.90;;;;;;5056142;28;19913;-72
2022/10/10 04:45:40;;;;;;;;;;;9.10;99.90;;;;;;5063880;28;19932;-72
2022/10/10 04:48:06;;;;;;;;;;;9.00;99.90;;;;;;5064755;28;19959;-72
2022/10/10 04:50:32;;;;;;;;;;;9.00;99.90;;;;;;5065249;28;19983;-72
2022/10/10 04:52:57;;;;;;;;;;;8.90;99.90;;;;;;5064560;28;19966;-72
2022/10/10 04:55:23;;;;;;;;;;;8.80;99.90;;;;;;5064953;28;19917;-72
2022/10/10 04:57:49;;;;;;;;;;;8.70;99.90;;;;;;5063907;28;20128;-72
2022/10/10 05:00:14;;;;;;;;;;;8.70;99.90;;;;;;5065158;28;19913;-72
2022/10/10 05:02:40;;;;;;;;;;;8.70;99.90;;;;;;5080216;28;20015;-72
2022/10/10 05:05:06;;;;;;;;;;;8.70;99.90;;;;;;5064772;28;19908;-72
2022/10/10 05:07:32;;;;;;;;;;;8.70;99.90;;;;;;5064605;28;19948;-72
2022/10/10 05:09:58;;;;;;;;;;;8.60;99.90;;;;;;5061710;28;19943;-72
2022/10/10 05:12:23;;;;;;;;;;;8.60;99.90;;;;;;5064811;28;19916;-72
2022/10/10 05:14:49;;;;;;;;;;;8.60;99.90;;;;;;5054395;28;19912;-71
2022/10/10 05:17:15;;;;;;;;;;;8.60;99.90;;;;;;5064602;28;20227;-72
2022/10/10 05:19:40;;;;;;;;;;;8.60;99.90;;;;;;5064298;28;20303;-74
2022/10/10 05:22:06;;;;;;;;;;;8.70;99.90;;;;;;5060553;28;20254;-74
2022/10/10 05:24:31;;;;;;;;;;;8.70;99.90;;;;;;5064530;28;20111;-75
2022/10/10 05:26:58;;;;;;;;;;;8.70;99.90;;;;;;5060602;28;19924;-74
2022/10/10 05:29:23;;;;;;;;;;;8.60;99.90;;;;;;5059540;28;19960;-74
2022/10/10 05:31:49;;;;;;;;;;;8.60;99.90;;;;;;5056617;28;19908;-74
2022/10/10 05:34:15;;;;;;;;;;;8.60;99.90;;;;;;5064348;28;19940;-74
2022/10/10 05:36:41;;;;;;;;;;;8.60;99.90;;;;;;5064383;28;19925;-74
2022/10/10 05:39:07;;;;;;;;;;;8.60;99.90;;;;;;5045191;28;20104;-74
2022/10/10 05:41:32;;;;;;;;;;;8.60;99.90;;;;;;5046438;28;19970;-74
2022/10/10 05:43:58;;;;;;;;;;;8.50;99.90;;;;;;5063787;28;19928;-74
2022/10/10 05:46:25;;;;;;;;;;;8.50;99.90;;;;;;5064139;28;19920;-74
2022/10/10 05:48:52;;;;;;;;;;;8.50;99.90;;;;;;5063407;28;20200;-74
2022/10/10 05:51:17;;;;;;;;;;;8.50;99.90;;;;;;5063633;28;19917;-74
2022/10/10 05:53:43;;;;;;;;;;;8.50;99.90;;;;;;5063317;28;19915;-74
2022/10/10 05:56:10;;;;;;;;;;;8.50;99.90;;;;;;5063212;28;20279;-75
2022/10/10 05:58:36;;;;;;;;;;;8.50;99.90;;;;;;5063232;28;19913;-74
2022/10/10 06:01:03;;;;;;;;;;;8.50;99.90;;;;;;5063527;28;20142;-74
2022/10/10 06:03:29;;;;;;;;;;;8.50;99.90;;;;;;5063206;28;20160;-74
2022/10/10 06:05:55;;;;;;;;;;;8.50;99.90;;;;;;5064250;28;20093;-74
2022/10/10 06:08:21;;;;;;;;;;;8.50;99.90;;;;;;5046241;28;19930;-74
2022/10/10 06:10:46;;;;;;;;;;;8.50;99.90;;;;;;5064278;28;20115;-75
2022/10/10 06:13:13;;;;;;;;;;;8.50;99.90;;;;;;5046463;28;20131;-74
2022/10/10 06:15:39;;;;;;;;;;;8.60;99.90;;;;;;5062639;28;20204;-74
2022/10/10 06:18:04;;;;;;;;;;;8.50;99.90;;;;;;5063676;28;19935;-74
2022/10/10 06:20:33;;;;;;;;;;;8.60;99.90;;;;;;5045924;28;19982;-74
2022/10/10 06:22:59;;;;;;;;;;;8.60;99.90;;;;;;5063056;28;19915;-74
2022/10/10 06:25:25;;;;;;;;;;;8.60;99.90;;;;;;5062244;28;19909;-74
2022/10/10 06:27:50;;;;;;;;;;;8.60;99.90;;;;;;5062923;28;19909;-74
2022/10/10 06:30:16;;;;;;;;;;;8.50;99.90;;;;;;5063148;28;19915;-75
2022/10/10 06:32:42;;;;;;;;;;;8.50;99.90;;;;;;5062053;28;19912;-74
2022/10/10 06:35:08;;;;;;;;;;;8.50;99.90;;;;;;5062987;28;19920;-74
2022/10/10 06:37:33;;;;;;;;;;;8.50;99.90;;;;;;5061800;28;19921;-74
2022/10/10 06:39:59;;;;;;;;;;;8.50;99.90;;;;;;5063729;28;19942;-74
2022/10/10 06:42:25;;;;;;;;;;;8.60;99.90;;;;;;5063794;28;19916;-75
2022/10/10 06:44:50;;;;;;;;;;;8.70;99.90;;;;;;5062890;28;19911;-74
2022/10/10 06:47:16;;;;;;;;;;;8.70;99.90;;;;;;5062862;28;19927;-74
2022/10/10 06:49:42;;;;;;;;;;;8.70;99.90;;;;;;5063623;28;20201;-75
2022/10/10 06:52:07;;;;;;;;;;;8.70;99.90;;;;;;5063498;28;19921;-75
2022/10/10 06:54:33;;;;;;;;;;;8.80;99.90;;;;;;5061583;28;19916;-74
2022/10/10 06:56:59;;;;;;;;;;;8.80;99.90;;;;;;5063245;28;19916;-74
2022/10/10 06:59:24;;;;;;;;;;;8.90;99.90;;;;;;5063368;28;19948;-74
2022/10/10 07:01:50;;;;;;;;;;;8.90;99.90;;;;;;5062789;28;19954;-74
2022/10/10 07:04:15;;;;;;;;;;;8.90;99.90;;;;;;5061634;28;20230;-75
2022/10/10 07:06:41;;;;;;;;;;;9.00;99.90;;;;;;5062321;28;20219;-74
2022/10/10 07:09:07;;;;;;;;;;;9.00;99.90;;;;;;5062781;28;20111;-74
2022/10/10 07:11:33;;;;;;;;;;;9.10;99.90;;;;;;5062547;28;19924;-75
2022/10/10 07:13:58;;;;;;;;;;;9.10;99.90;;;;;;5062740;28;19996;-74
2022/10/10 07:16:24;;;;;;;;;;;9.20;99.90;;;;;;5062121;28;19916;-74
2022/10/10 07:18:52;;;;;;;;;;;9.30;99.90;;;;;;5062540;28;20221;-74
2022/10/10 07:21:17;;;;;;;;;;;9.30;99.90;;;;;;5062114;28;20203;-74
2022/10/10 07:23:43;;;;;;;;;;;9.40;99.90;;;;;;5062946;28;20123;-75
2022/10/10 07:26:13;;;;;;;;;;;9.50;99.90;;;;;;5061935;28;19971;-75
2022/10/10 07:28:38;;;;;;;;;;;9.60;99.90;;;;;;5061859;28;19924;-74
2022/10/10 07:31:08;;;;;;;;;;;9.80;99.90;;;;;;5062075;28;19909;-73
2022/10/10 07:33:45;;;;;;;;;;;9.80;99.90;;;;;;5061896;28;19908;-74
2022/10/10 07:36:10;;;;;;;;;;;9.90;99.90;;;;;;5061440;28;19917;-73
2022/10/10 07:38:36;;;;;;;;;;;10.00;99.90;;;;;;5062555;28;19967;-74
2022/10/10 07:41:10;;;;;;;;;;;10.10;99.90;;;;;;5060526;28;20196;-74
2022/10/10 07:43:36;;;;;;;;;;;10.30;99.90;;;;;;5025366;28;19916;-74
2022/10/10 07:46:03;;;;;;;;;;;10.30;99.90;;;;;;5042654;28;19909;-74
2022/10/10 07:48:29;;;;;;;;;;;10.50;99.90;;;;;;5044561;28;19979;-74
2022/10/10 07:50:55;;;;;;;;;;;10.60;99.90;;;;;;5062002;28;19940;-74
2022/10/10 07:53:20;;;;;;;;;;;10.70;99.90;;;;;;5061145;28;20108;-74
2022/10/10 07:55:46;;;;;;;;;;;10.80;99.90;;;;;;5061473;28;19909;-74
2022/10/10 07:58:12;;;;;;;;;;;10.90;99.90;;;;;;5061874;28;19920;-74
2022/10/10 08:00:40;;;;;;;;;;;10.90;99.90;;;;;;5061645;28;19946;-74
2022/10/10 08:03:09;;;;;;;;;;;11.00;99.90;;;;;;5064727;28;20084;-74
2022/10/10 08:05:41;;;;;;;;;;;11.10;99.90;;;;;;5049905;28;20103;-74
2022/10/10 08:08:08;;;;;;;;;;;11.20;99.90;;;;;;5064635;28;20107;-74
2022/10/10 08:10:34;;;;;;;;;;;11.30;99.90;;;;;;5065735;28;19936;-72
2022/10/10 08:13:00;;;;;;;;;;;11.50;99.90;;;;;;5060773;28;19916;-72
2022/10/10 08:15:25;;;;;;;;;;;11.60;99.90;;;;;;5046320;28;19931;-71
2022/10/10 08:17:51;;;;;;;;;;;11.70;99.90;;;;;;5050177;28;19912;-70
2022/10/10 08:20:17;;;;;;;;;;;11.80;99.90;;;;;;5065937;28;19915;-69
2022/10/10 08:22:42;;;;;;;;;;;11.80;99.90;;;;;;5065549;28;19916;-71
2022/10/10 08:25:08;;;;;;;;;;;11.80;99.90;;;;;;5065732;28;19917;-70
2022/10/10 08:27:34;;;;;;;;;;;11.90;99.90;;;;;;5065270;28;19936;-70
2022/10/10 08:29:59;;;;;;;;;;;12.00;99.90;;;;;;5066055;28;19931;-70
2022/10/10 08:32:25;;;;;;;;;;;12.00;99.90;;;;;;5065779;28;20186;-69
2022/10/10 08:34:51;;;;;;;;;;;12.10;99.90;;;;;;5065871;28;19931;-70
2022/10/10 08:37:16;;;;;;;;;;;12.10;99.90;;;;;;5066170;28;19920;-69
2022/10/10 08:39:42;;;;;;;;;;;12.20;99.90;;;;;;5066224;28;19928;-74
2022/10/10 08:42:16;;;;;;;;;;;12.20;99.90;;;;;;5049996;28;19917;-73
2022/10/10 08:44:50;;;;;;;;;;;12.30;99.90;;;;;;5067952;28;19909;-76
2022/10/10 08:47:20;;;;;;;;;;;12.40;99.90;;;;;;5066147;28;19942;-73
2022/10/10 08:49:56;;;;;;;;;;;12.50;99.90;;;;;;5064956;28;20085;-72
2022/10/10 08:52:47;;;;;;;;;;;12.60;99.90;;;;;;5065697;28;19915;-68
2022/10/10 08:55:18;;;;;;;;;;;12.70;99.90;;;;;;5065379;28;19987;-73
2022/10/10 08:57:56;;;;;;;;;;;12.80;99.90;;;;;;5065214;28;19928;-72
2022/10/10 09:00:23;;;;;;;;;;;13.00;99.90;;;;;;5065066;28;19908;-72
2022/10/10 09:02:55;;;;;;;;;;;13.00;99.90;;;;;;5049105;28;20108;-72
2022/10/10 09:05:30;;;;;;;;;;;13.10;99.90;;;;;;5060691;28;19951;-73
2022/10/10 09:08:11;;;;;;;;;;;13.10;99.90;;;;;;5045320;28;19916;-73
2022/10/10 09:10:53;;;;;;;;;;;13.30;99.90;;;;;;5065236;28;19913;-72
2022/10/10 09:13:34;;;;;;;;;;;13.30;99.90;;;;;;5063904;28;20196;-73
2022/10/10 09:16:01;;;;;;;;;;;13.40;99.90;;;;;;5046426;28;19930;-72
2022/10/10 09:18:35;;;;;;;;;;;13.40;99.90;;;;;;5063652;28;19912;-72
2022/10/10 09:21:07;;;;;;;;;;;13.40;99.90;;;;;;5063308;28;19928;-72
2022/10/10 09:23:34;;;;;;;;;;;13.60;99.90;;;;;;5063954;28;19920;-72
2022/10/10 09:26:02;;;;;;;;;;;13.80;99.90;;;;;;5063181;28;19916;-73
2022/10/10 09:28:47;;;;;;;;;;;14.00;99.90;;;;;;5064550;28;19924;-71
2022/10/10 09:31:14;;;;;;;;;;;14.10;99.90;;;;;;5064963;28;19940;-72
2022/10/10 09:33:42;;;;;;;;;;;14.20;99.90;;;;;;5063057;28;19909;-72
2022/10/10 09:36:11;;;;;;;;;;;14.30;99.90;;;;;;5063558;28;20131;-71
2022/10/10 09:38:41;;;;;;;;;;;14.50;99.90;;;;;;5063574;28;19917;-72
2022/10/10 09:41:28;;;;;;;;;;;14.60;99.90;;;;;;5062752;28;19908;-72
2022/10/10 09:43:55;;;;;;;;;;;14.90;99.90;;;;;;5066197;28;20115;-73
2022/10/10 09:46:20;;;;;;;;;;;15.10;99.90;;;;;;5062477;28;20142;-71
2022/10/10 09:48:46;;;;;;;;;;;15.30;99.90;;;;;;5064485;28;19913;-72
2022/10/10 09:51:15;;;;;;;;;;;15.50;99.90;;;;;;5063976;28;19916;-72
2022/10/10 09:53:42;;;;;;;;;;;15.70;99.90;;;;;;5064155;28;20195;-72
2022/10/10 09:56:28;;;;;;;;;;;15.90;99.90;;;;;;5063145;28;19931;-71
2022/10/10 09:58:54;;;;;;;;;;;16.40;99.90;;;;;;5047925;28;19987;-72
2022/10/10 10:01:24;;;;;;;;;;;16.20;99.90;;;;;;5046638;28;19915;-72
2022/10/10 10:04:14;;;;;;;;;;;16.30;99.90;;;;;;5061055;28;19990;-74
2022/10/10 10:06:48;;;;;;;;;;;16.40;99.90;;;;;;5057703;28;20289;-74
2022/10/10 10:09:15;;;;;;;;;;;16.50;99.90;;;;;;5042827;28;19923;-74
2022/10/10 10:11:41;;;;;;;;;;;16.50;99.90;;;;;;5059352;28;19975;-74
2022/10/10 10:14:21;;;;;;;;;;;16.60;99.90;;;;;;5042831;28;19948;-74
2022/10/10 10:16:46;;;;;;;;;;;16.80;99.90;;;;;;5059284;28;19909;-74
2022/10/10 10:19:35;;;;;;;;;;;16.80;99.90;;;;;;5050396;28;19963;-73
2022/10/10 10:22:01;;;;;;;;;;;17.00;99.90;;;;;;5061170;28;19980;-73
2022/10/10 10:24:35;;;;;;;;;;;17.10;99.90;;;;;;5059279;28;19909;-73
2022/10/10 10:27:09;;;;;;;;;;;17.20;99.90;;;;;;5044875;28;20003;-73
2022/10/10 10:29:35;;;;;;;;;;;17.20;99.90;;;;;;5062139;28;19913;-73
2022/10/10 10:32:19;;;;;;;;;;;17.30;99.90;;;;;;5062111;28;19916;-74
2022/10/10 10:34:50;;;;;;;;;;;17.30;99.90;;;;;;5063576;28;19909;-72
2022/10/10 10:37:21;;;;;;;;;;;17.30;99.90;;;;;;5063153;28;20214;-73
2022/10/10 10:40:16;;;;;;;;;;;17.20;99.90;;;;;;5062561;28;19913;-73
2022/10/10 10:43:15;;;;;;;;;;;17.30;99.90;;;;;;5064914;28;19966;-73
2022/10/10 10:46:02;;;;;;;;;;;17.40;99.90;;;;;;5062992;28;19916;-74
2022/10/10 10:48:42;;;;;;;;;;;17.50;99.90;;;;;;5062088;28;20123;-73
2022/10/10 10:51:13;;;;;;;;;;;17.60;99.90;;;;;;5062524;28;20003;-73
2022/10/10 10:53:45;;;;;;;;;;;17.70;99.90;;;;;;5063289;28;20164;-73
2022/10/10 10:56:29;;;;;;;;;;;17.80;99.90;;;;;;5061931;28;19908;-73
2022/10/10 10:59:14;;;;;;;;;;;18.10;99.90;;;;;;5063028;28;19950;-71
2022/10/10 11:02:05;;;;;;;;;;;18.60;99.90;;;;;;5062925;28;19955;-71
2022/10/10 11:04:59;;;;;;;;;;;19.00;99.90;;;;;;5063684;28;19942;-71
2022/10/10 11:07:24;;;;;;;;;;;19.50;99.90;;;;;;5062897;28;19940;-71
2022/10/10 11:10:15;;;;;;;;;;;20.00;99.90;;;;;;5061608;28;19909;-72
2022/10/10 11:13:05;;;;;;;;;;;20.40;99.90;;;;;;5061372;28;20092;-72
2022/10/10 11:15:53;;;;;;;;;;;20.90;99.90;;;;;;5062042;28;20176;-71
2022/10/10 11:18:43;;;;;;;;;;;21.30;99.90;;;;;;5062665;28;20112;-71
2022/10/10 11:21:20;;;;;;;;;;;21.70;99.90;;;;;;5039353;28;20235;-71
2022/10/10 11:23:59;;;;;;;;;;;22.00;99.90;;;;;;5041530;28;19972;-71
2022/10/10 11:26:35;;;;;;;;;;;22.00;99.90;;;;;;5061956;28;20096;-71
2022/10/10 11:29:03;;;;;;;;;;;21.70;99.90;;;;;;5061204;28;19908;-72
2022/10/10 11:31:38;;;;;;;;;;;21.20;99.90;;;;;;5061228;28;19909;-71
2022/10/10 11:34:11;;;;;;;;;;;20.80;99.90;;;;;;5061442;28;19909;-74
2022/10/10 11:36:38;;;;;;;;;;;20.50;99.90;;;;;;5060368;28;19909;-74
2022/10/10 11:39:03;;;;;;;;;;;20.40;99.90;;;;;;5060994;28;19933;-75
2022/10/10 11:41:40;;;;;;;;;;;21.10;99.90;;;;;;5062341;28;19915;-74
2022/10/10 11:44:26;;;;;;;;;;;21.20;99.90;;;;;;5061083;28;19916;-72
2022/10/10 11:46:59;;;;;;;;;;;21.90;99.90;;;;;;5061077;28;20119;-72
2022/10/10 11:49:53;;;;;;;;;;;22.60;99.90;;;;;;5060840;28;19940;-77
2022/10/10 11:52:52;;;;;;;;;;;23.40;99.90;;;;;;5061139;28;19915;-72
2022/10/10 11:55:25;;;;;;;;;;;24.20;99.90;;;;;;5049487;28;20183;-75
2022/10/10 11:58:14;;;;;;;;;;;24.90;97.10;;;;;;5060886;28;20196;-72
2022/10/10 12:00:43;;;;;;;;;;;25.00;98.20;;;;;;5061095;28;19909;-72
2022/10/10 12:03:08;;;;;;;;;;;25.20;95.10;;;;;;5061328;28;19909;-72
2022/10/10 12:05:37;;;;;;;;;;;24.80;96.20;;;;;;5060317;28;19916;-72
2022/10/10 12:08:07;;;;;;;;;;;24.00;99.00;;;;;;5060879;28;19963;-72
2022/10/10 12:10:46;;;;;;;;;;;23.50;99.90;;;;;;5060035;28;19916;-72
2022/10/10 12:13:37;;;;;;;;;;;23.10;99.90;;;;;;5061057;28;20152;-72
2022/10/10 12:16:30;;;;;;;;;;;22.80;99.90;;;;;;5059979;28;19988;-71
2022/10/10 12:19:04;;;;;;;;;;;22.10;99.90;;;;;;5058157;28;20114;-72
2022/10/10 12:21:30;;;;;;;;;;;21.70;99.90;;;;;;5060988;28;19915;-71
2022/10/10 12:24:13;;;;;;;;;;;21.30;99.90;;;;;;5060265;28;20208;-71
2022/10/10 12:27:05;;;;;;;;;;;21.40;99.90;;;;;;5043706;28;19955;-71
2022/10/10 12:29:55;;;;;;;;;;;22.00;99.90;;;;;;5045447;28;20333;-71
2022/10/10 12:32:26;;;;;;;;;;;23.20;99.90;;;;;;5061785;28;19909;-72
2022/10/10 12:34:51;;;;;;;;;;;25.00;99.90;;;;;;5060742;28;19920;-72
2022/10/10 12:37:28;;;;;;;;;;;25.90;97.00;;;;;;5059447;28;19921;-72
2022/10/10 12:40:06;;;;;;;;;;;26.30;93.00;;;;;;5032154;28;19968;-72
2022/10/10 12:42:47;;;;;;;;;;;26.00;93.10;;;;;;5057311;28;19913;-72
2022/10/10 12:45:28;;;;;;;;;;;25.30;95.10;;;;;;5060970;28;20238;-72
2022/10/10 12:47:54;;;;;;;;;;;25.40;96.40;;;;;;5056753;28;19928;-72
2022/10/10 12:50:40;;;;;;;;;;;26.40;92.50;;;;;;5055107;28;19909;-73
2022/10/10 12:53:11;;;;;;;;;;;26.80;92.00;;;;;;5062383;28;19943;-72
2022/10/10 12:55:46;;;;;;;;;;;26.50;91.90;;;;;;5062176;28;19916;-72
2022/10/10 12:58:20;;;;;;;;;;;26.20;93.80;;;;;;5063388;28;19920;-72
2022/10/10 13:00:46;;;;;;;;;;;25.60;93.40;;;;;;5064035;28;19909;-73
2022/10/10 13:03:15;;;;;;;;;;;24.90;96.50;;;;;;5064559;28;20142;-73
2022/10/10 13:05:41;;;;;;;;;;;24.70;96.50;;;;;;5063713;28;19916;-71
2022/10/10 13:08:12;;;;;;;;;;;24.40;98.10;;;;;;5063136;28;19909;-71
2022/10/10 13:10:38;;;;;;;;;;;24.10;99.90;;;;;;5064001;28;19920;-71
2022/10/10 13:13:24;;;;;;;;;;;23.90;99.90;;;;;;5063379;28;20214;-72
2022/10/10 13:15:51;;;;;;;;;;;23.70;99.90;;;;;;5063106;28;20279;-72
2022/10/10 13:18:38;;;;;;;;;;;23.10;99.90;;;;;;5063208;28;19976;-72
2022/10/10 13:21:05;;;;;;;;;;;22.60;99.90;;;;;;5063627;28;19908;-72
2022/10/10 13:23:31;;;;;;;;;;;22.00;99.90;;;;;;5064563;28;19931;-72
2022/10/10 13:25:57;;;;;;;;;;;21.60;99.90;;;;;;5046688;28;19909;-72
2022/10/10 13:28:22;;;;;;;;;;;21.30;99.90;;;;;;5046384;28;19920;-72
2022/10/10 13:30:48;;;;;;;;;;;21.00;99.90;;;;;;5047159;28;20093;-71
2022/10/10 13:33:18;;;;;;;;;;;20.80;99.90;;;;;;5064057;28;19920;-72
2022/10/10 13:35:44;;;;;;;;;;;20.50;99.90;;;;;;5063943;28;19909;-72
2022/10/10 13:38:11;;;;;;;;;;;20.50;99.90;;;;;;5061651;28;20082;-72
2022/10/10 13:40:38;;;;;;;;;;;20.60;99.90;;;;;;5047145;28;19913;-72
2022/10/10 13:43:04;;;;;;;;;;;20.70;99.90;;;;;;5063362;28;19930;-72
2022/10/10 13:45:59;;;;;;;;;;;20.70;99.90;;;;;;5046269;28;20223;-71
2022/10/10 13:48:34;;;;;;;;;;;20.90;99.90;;;;;;5062956;28;20278;-71
2022/10/10 13:51:08;;;;;;;;;;;21.80;99.90;;;;;;5063903;28;19909;-72
2022/10/10 13:53:40;;;;;;;;;;;23.10;99.90;;;;;;5063153;28;19916;-72
2022/10/10 13:56:26;;;;;;;;;;;24.20;99.90;;;;;;5062606;28;19909;-72
2022/10/10 13:59:04;;;;;;;;;;;25.80;99.90;;;;;;5063449;28;19919;-72
2022/10/10 14:01:36;;;;;;;;;;;27.90;91.50;;;;;;5063709;28;19909;-72
2022/10/10 14:04:09;;;;;;;;;;;29.20;84.50;;;;;;5063606;28;19916;-72
2022/10/10 14:06:35;;;;;;;;;;;30.50;72.90;;;;;;5064132;28;19909;-72
2022/10/10 14:09:06;;;;;;;;;;;30.90;68.00;;;;;;5064023;28;20106;-73
2022/10/10 14:11:32;;;;;;;;;;;31.20;63.80;;;;;;5063157;28;19955;-73
2022/10/10 14:14:34;;;;;;;;;;;30.60;64.60;;;;;;5045989;28;19983;-73
2022/10/10 14:17:01;;;;;;;;;;;29.80;67.80;;;;;;5037712;28;19908;-71
2022/10/10 14:19:27;;;;;;;;;;;29.00;72.50;;;;;;5063597;28;19913;-72
2022/10/10 14:21:53;;;;;;;;;;;28.60;76.30;;;;;;5062800;28;20175;-72
2022/10/10 14:24:18;;;;;;;;;;;28.20;76.70;;;;;;5063895;28;20227;-70
2022/10/10 14:26:44;;;;;;;;;;;27.30;84.30;;;;;;5063360;28;19908;-70
2022/10/10 14:29:13;;;;;;;;;;;26.50;88.80;;;;;;5062766;28;20046;-71
2022/10/10 14:31:39;;;;;;;;;;;25.70;92.70;;;;;;5062542;28;19979;-72
2022/10/10 14:34:05;;;;;;;;;;;24.70;96.70;;;;;;5063735;28;19909;-72
2022/10/10 14:36:31;;;;;;;;;;;23.80;99.90;;;;;;5062844;28;19979;-71
2022/10/10 14:38:56;;;;;;;;;;;23.10;99.90;;;;;;5062770;28;20326;-72